Time;durP1;ratioP1;P1;durP2;ratioP2;P2;SDS_P1;SDS_P2;PMS_P1;PMS_P2;Temp;Humidity;BMP_temperature;BMP_pressure;BME280_temperature;BME280_humidity;BME280_pressure;Samples;Min_cycle;Max_cycle;Signal;HPM_P1;HPM_P2
2023/11/01 00:00:32;;;;;;;33.85;17.27;;;10.40;99.90;;;;;;5030840;28;20543;-60
2023/11/01 00:02:58;;;;;;;35.60;18.88;;;10.40;99.90;;;;;;5031864;28;20184;-61
2023/11/01 00:05:24;;;;;;;37.55;20.70;;;10.40;99.90;;;;;;5014531;28;20206;-62
2023/11/01 00:07:50;;;;;;;42.63;20.67;;;10.40;99.90;;;;;;5014386;28;20539;-61
2023/11/01 00:10:16;;;;;;;44.85;21.10;;;10.40;99.90;;;;;;4997668;28;20234;-65
2023/11/01 00:12:42;;;;;;;33.80;19.92;;;10.40;99.90;;;;;;5031884;28;20183;-61
2023/11/01 00:15:08;;;;;;;43.53;20.25;;;10.50;99.90;;;;;;5032088;28;20199;-61
2023/11/01 00:17:34;;;;;;;38.50;20.70;;;10.50;99.90;;;;;;5032012;28;20180;-64
2023/11/01 00:20:00;;;;;;;45.17;21.05;;;10.50;99.90;;;;;;5014166;28;20279;-65
2023/11/01 00:22:26;;;;;;;38.75;19.45;;;10.50;99.90;;;;;;5031855;28;20176;-63
2023/11/01 00:24:52;;;;;;;35.83;19.25;;;10.50;99.90;;;;;;5032057;28;20341;-61
2023/11/01 00:27:18;;;;;;;35.75;20.23;;;10.50;99.90;;;;;;5014371;28;20507;-62
2023/11/01 00:29:44;;;;;;;37.05;20.60;;;10.50;99.90;;;;;;5030683;28;20246;-62
2023/11/01 00:32:10;;;;;;;41.13;22.33;;;10.50;99.90;;;;;;5031482;28;20226;-63
2023/11/01 00:34:36;;;;;;;38.78;21.40;;;10.50;99.90;;;;;;5013813;28;20184;-60
2023/11/01 00:37:02;;;;;;;39.80;21.80;;;10.50;99.90;;;;;;5014331;28;20273;-65
2023/11/01 00:39:28;;;;;;;38.72;21.30;;;10.50;99.90;;;;;;5031454;28;20211;-61
2023/11/01 00:41:54;;;;;;;38.40;21.13;;;10.60;99.90;;;;;;5032261;28;20183;-60
2023/11/01 00:44:20;;;;;;;42.40;21.58;;;10.50;99.90;;;;;;5014195;28;20612;-62
2023/11/01 00:46:46;;;;;;;39.72;21.30;;;10.60;99.90;;;;;;5013978;28;20770;-60
2023/11/01 00:49:12;;;;;;;43.95;21.77;;;10.50;99.90;;;;;;5014057;28;20181;-61
2023/11/01 00:51:40;;;;;;;39.60;21.95;;;10.50;99.90;;;;;;5013924;28;20218;-59
2023/11/01 00:54:06;;;;;;;39.10;21.58;;;10.50;99.90;;;;;;5031255;28;20663;-66
2023/11/01 00:56:32;;;;;;;39.60;21.85;;;10.60;99.90;;;;;;5033412;28;20176;-61
2023/11/01 00:58:58;;;;;;;40.85;21.08;;;10.60;99.90;;;;;;5017345;28;20690;-61
2023/11/01 01:01:24;;;;;;;43.67;21.88;;;10.60;99.90;;;;;;5017109;28;20246;-62
2023/11/01 01:03:50;;;;;;;38.33;22.60;;;10.60;99.90;;;;;;5035088;28;20186;-64
2023/11/01 01:06:16;;;;;;;39.65;22.08;;;10.60;99.90;;;;;;5034873;28;20187;-63
2023/11/01 01:08:42;;;;;;;38.90;22.88;;;10.60;99.90;;;;;;5035338;28;20234;-62
2023/11/01 01:11:08;;;;;;;47.72;24.67;;;10.70;99.90;;;;;;5035426;28;20231;-60
2023/11/01 01:13:34;;;;;;;45.75;22.98;;;10.70;99.90;;;;;;5033628;28;20188;-63
2023/11/01 01:16:03;;;;;;;42.95;22.92;;;10.70;99.90;;;;;;5033845;28;20611;-67
2023/11/01 01:18:29;;;;;;;47.95;24.58;;;10.70;99.90;;;;;;5017616;28;20215;-65
2023/11/01 01:20:55;;;;;;;40.70;23.05;;;10.70;99.90;;;;;;5001190;28;20192;-63
2023/11/01 01:23:21;;;;;;;45.88;24.13;;;10.70;99.90;;;;;;5035132;28;20199;-62
2023/11/01 01:25:46;;;;;;;45.47;24.67;;;10.80;99.90;;;;;;5016977;28;20274;-63
2023/11/01 01:28:12;;;;;;;47.40;25.48;;;10.80;99.90;;;;;;5016803;28;20184;-60
2023/11/01 01:30:38;;;;;;;43.25;24.92;;;10.80;99.90;;;;;;5016826;28;20210;-65
2023/11/01 01:33:04;;;;;;;42.22;24.17;;;10.80;99.90;;;;;;5035050;28;20279;-66
2023/11/01 01:35:30;;;;;;;47.22;26.58;;;10.80;99.90;;;;;;5034449;28;20250;-62
2023/11/01 01:37:56;;;;;;;43.85;24.42;;;10.90;99.90;;;;;;5016195;28;20204;-62
2023/11/01 01:40:22;;;;;;;42.45;25.33;;;10.90;99.90;;;;;;5034659;28;20186;-63
2023/11/01 01:42:48;;;;;;;46.75;25.50;;;10.90;99.90;;;;;;5034173;28;20180;-60
2023/11/01 01:45:14;;;;;;;46.95;26.25;;;10.90;99.90;;;;;;5017456;28;20216;-61
2023/11/01 01:47:40;;;;;;;42.00;25.60;;;11.00;99.90;;;;;;5018018;28;20176;-61
2023/11/01 01:50:08;;;;;;;44.60;26.45;;;10.90;99.90;;;;;;5018313;28;20211;-63
2023/11/01 01:52:34;;;;;;;46.08;27.00;;;10.90;99.90;;;;;;5018849;28;20180;-65
2023/11/01 01:55:03;;;;;;;49.70;27.15;;;11.00;99.90;;;;;;5018337;28;20184;-60
2023/11/01 01:57:29;;;;;;;45.60;26.08;;;11.00;99.90;;;;;;5017911;28;20184;-65
2023/11/01 01:59:57;;;;;;;43.50;26.77;;;11.00;99.90;;;;;;5002754;28;20196;-62
2023/11/01 02:02:24;;;;;;;47.70;27.10;;;11.00;99.90;;;;;;5002080;28;20281;-61
2023/11/01 02:04:50;;;;;;;40.75;25.60;;;11.00;99.90;;;;;;5035760;28;20190;-60
2023/11/01 02:07:16;;;;;;;45.08;25.75;;;11.00;99.90;;;;;;5017349;28;20176;-59
2023/11/01 02:09:42;;;;;;;48.05;26.05;;;11.00;99.90;;;;;;5017230;28;20379;-63
2023/11/01 02:12:09;;;;;;;42.22;25.08;;;11.00;99.90;;;;;;5017729;28;20203;-62
2023/11/01 02:14:35;;;;;;;44.08;27.38;;;11.00;99.90;;;;;;5016617;28;20188;-62
2023/11/01 02:17:01;;;;;;;50.30;27.13;;;11.00;99.90;;;;;;5016949;28;20635;-65
2023/11/01 02:19:27;;;;;;;49.88;28.90;;;11.00;99.90;;;;;;5016533;28;20211;-64
2023/11/01 02:21:53;;;;;;;51.13;29.23;;;11.00;99.90;;;;;;5035566;28;20176;-61
2023/11/01 02:24:19;;;;;;;52.53;28.27;;;10.90;99.90;;;;;;5018595;28;20259;-63
2023/11/01 02:26:45;;;;;;;47.70;28.55;;;10.90;99.90;;;;;;5017818;28;20271;-62
2023/11/01 02:29:11;;;;;;;53.70;29.23;;;10.90;99.90;;;;;;5034059;28;20215;-64
2023/11/01 02:31:37;;;;;;;52.97;29.67;;;10.80;99.90;;;;;;5015967;28;20263;-63
2023/11/01 02:34:08;;;;;;;51.75;28.83;;;10.90;99.90;;;;;;5015672;28;20184;-61
2023/11/01 02:36:35;;;;;;;59.65;31.50;;;10.80;99.90;;;;;;5015544;28;20160;-63
2023/11/01 02:39:01;;;;;;;52.88;29.27;;;10.80;99.90;;;;;;5033823;28;20203;-64
2023/11/01 02:41:27;;;;;;;50.80;28.30;;;10.80;99.90;;;;;;5033693;28;20180;-60
2023/11/01 02:43:53;;;;;;;52.75;29.05;;;10.70;99.90;;;;;;5033742;28;20657;-64
2023/11/01 02:46:19;;;;;;;55.78;29.55;;;10.70;99.90;;;;;;5032335;28;20694;-62
2023/11/01 02:48:46;;;;;;;58.08;29.90;;;10.70;99.90;;;;;;5015600;28;20180;-60
2023/11/01 02:51:12;;;;;;;51.28;28.90;;;10.70;99.90;;;;;;5033318;28;20229;-61
2023/11/01 02:53:38;;;;;;;56.42;30.20;;;10.60;99.90;;;;;;5032990;28;20648;-63
2023/11/01 02:56:05;;;;;;;53.25;29.08;;;10.60;99.90;;;;;;5015556;28;20278;-61
2023/11/01 02:58:33;;;;;;;56.65;29.52;;;10.50;99.90;;;;;;5033147;28;20291;-61
2023/11/01 03:01:00;;;;;;;50.17;29.60;;;10.50;99.90;;;;;;5015215;28;20183;-62
2023/11/01 03:03:28;;;;;;;61.60;29.92;;;10.50;99.90;;;;;;5032927;28;20195;-60
2023/11/01 03:05:54;;;;;;;56.47;30.38;;;10.40;99.90;;;;;;5015314;28;20183;-63
2023/11/01 03:08:20;;;;;;;60.65;31.30;;;10.40;99.90;;;;;;5032694;28;20230;-62
2023/11/01 03:10:46;;;;;;;61.95;31.40;;;10.40;99.90;;;;;;5032633;28;20671;-61
2023/11/01 03:13:12;;;;;;;58.53;31.08;;;10.30;99.90;;;;;;5033055;28;20202;-63
2023/11/01 03:15:38;;;;;;;69.47;32.55;;;10.30;99.90;;;;;;5015065;28;20698;-61
2023/11/01 03:18:04;;;;;;;58.90;30.90;;;10.30;99.90;;;;;;5032356;28;20687;-62
2023/11/01 03:20:30;;;;;;;60.05;30.95;;;10.30;99.90;;;;;;5032622;28;20192;-63
2023/11/01 03:22:56;;;;;;;59.55;30.85;;;10.30;99.90;;;;;;5014521;28;20534;-62
2023/11/01 03:25:23;;;;;;;58.53;31.58;;;10.30;99.90;;;;;;5033019;28;20198;-61
2023/11/01 03:27:48;;;;;;;56.33;30.20;;;10.30;99.90;;;;;;5032356;28;20194;-64
2023/11/01 03:30:15;;;;;;;56.67;30.65;;;10.30;99.90;;;;;;5014444;28;20190;-61
2023/11/01 03:32:41;;;;;;;58.03;29.52;;;10.30;99.90;;;;;;5032387;28;20200;-64
2023/11/01 03:35:07;;;;;;;64.22;31.88;;;10.30;99.90;;;;;;5014801;28;20215;-63
2023/11/01 03:37:33;;;;;;;58.97;30.00;;;10.30;99.90;;;;;;5032442;28;20245;-62
2023/11/01 03:39:59;;;;;;;57.33;29.67;;;10.30;99.90;;;;;;5014552;28;20183;-61
2023/11/01 03:42:25;;;;;;;53.50;29.38;;;10.30;99.90;;;;;;5032002;28;20188;-62
2023/11/01 03:44:51;;;;;;;54.03;30.55;;;10.40;99.90;;;;;;5031952;28;20168;-63
2023/11/01 03:47:17;;;;;;;54.13;29.42;;;10.40;99.90;;;;;;5014694;28;20237;-61
2023/11/01 03:49:44;;;;;;;50.80;28.20;;;10.40;99.90;;;;;;5014187;28;20182;-61
2023/11/01 03:52:10;;;;;;;54.58;28.58;;;10.40;99.90;;;;;;5031078;28;20189;-61
2023/11/01 03:54:36;;;;;;;48.80;28.08;;;10.50;99.90;;;;;;5032293;28;20612;-64
2023/11/01 03:57:02;;;;;;;49.28;27.85;;;10.50;99.90;;;;;;5032209;28;20187;-62
2023/11/01 03:59:29;;;;;;;44.00;27.20;;;10.60;99.90;;;;;;5031709;28;20211;-60
2023/11/01 04:01:54;;;;;;;45.63;25.45;;;10.60;99.90;;;;;;5014395;28;20188;-64
2023/11/01 04:04:20;;;;;;;43.75;26.13;;;10.70;99.90;;;;;;5032002;28;20679;-64
2023/11/01 04:06:46;;;;;;;39.13;25.58;;;10.70;99.90;;;;;;5031687;28;20172;-60
2023/11/01 04:09:12;;;;;;;41.75;25.60;;;10.80;99.90;;;;;;4981784;28;20512;-61
2023/11/01 04:11:38;;;;;;;45.15;25.77;;;10.80;99.90;;;;;;5032161;28;20262;-63
2023/11/01 04:14:04;;;;;;;39.65;24.45;;;10.90;99.90;;;;;;5032033;28;20608;-64
2023/11/01 04:16:31;;;;;;;38.75;24.15;;;11.00;99.90;;;;;;5031664;28;20237;-62
2023/11/01 04:18:56;;;;;;;41.25;23.65;;;11.00;99.90;;;;;;5031358;28;20693;-64
2023/11/01 04:21:23;;;;;;;38.85;22.70;;;11.10;99.90;;;;;;5014502;28;20195;-62
2023/11/01 04:23:51;;;;;;;37.05;23.55;;;11.10;99.90;;;;;;5031566;28;20187;-63
2023/11/01 04:26:18;;;;;;;34.60;23.83;;;11.20;99.90;;;;;;5031771;28;20176;-63
2023/11/01 04:28:44;;;;;;;43.83;23.63;;;11.20;99.90;;;;;;5031904;28;20188;-61
2023/11/01 04:31:10;;;;;;;36.45;24.33;;;11.30;99.90;;;;;;5034988;28;20313;-59
2023/11/01 04:33:37;;;;;;;41.70;24.30;;;11.30;99.90;;;;;;5035519;28;20183;-66
2023/11/01 04:36:08;;;;;;;38.42;23.90;;;11.30;99.90;;;;;;5035457;28;20670;-63
2023/11/01 04:38:37;;;;;;;40.55;25.08;;;11.40;99.90;;;;;;5017543;28;20196;-62
2023/11/01 04:41:08;;;;;;;39.97;25.17;;;11.40;99.90;;;;;;5035379;28;20188;-62
2023/11/01 04:43:36;;;;;;;41.83;24.08;;;11.40;99.90;;;;;;5035627;28;20172;-61
2023/11/01 04:46:02;;;;;;;38.65;24.35;;;11.50;99.90;;;;;;5035269;28;20199;-63
2023/11/01 04:48:28;;;;;;;38.78;24.80;;;11.50;99.90;;;;;;5035059;28;20175;-61
2023/11/01 04:50:54;;;;;;;41.38;24.63;;;11.60;99.90;;;;;;5035104;28;20497;-62
2023/11/01 04:53:20;;;;;;;40.85;24.25;;;11.60;99.90;;;;;;5035530;28;20609;-64
2023/11/01 04:55:46;;;;;;;44.28;23.75;;;11.60;99.90;;;;;;5034801;28;20681;-61
2023/11/01 04:58:12;;;;;;;43.08;24.23;;;11.70;99.90;;;;;;5017103;28;20235;-62
2023/11/01 05:00:38;;;;;;;43.13;24.73;;;11.70;99.90;;;;;;5035239;28;20240;-62
2023/11/01 05:03:04;;;;;;;41.38;23.52;;;11.70;99.90;;;;;;5035000;28;20195;-63
2023/11/01 05:05:32;;;;;;;37.45;23.70;;;11.70;99.90;;;;;;5017176;28;20341;-60
2023/11/01 05:07:58;;;;;;;38.10;23.48;;;11.70;99.90;;;;;;5017279;28;20188;-63
2023/11/01 05:10:24;;;;;;;42.67;23.30;;;11.70;99.90;;;;;;5016822;28;20246;-61
2023/11/01 05:12:50;;;;;;;42.33;24.40;;;11.70;99.90;;;;;;5034732;28;20183;-64
2023/11/01 05:15:16;;;;;;;40.08;23.48;;;11.70;99.90;;;;;;5035043;28;20187;-62
2023/11/01 05:17:41;;;;;;;37.03;23.10;;;11.70;99.90;;;;;;5034815;28;20247;-60
2023/11/01 05:20:08;;;;;;;37.80;23.45;;;11.80;99.90;;;;;;5034296;28;20196;-64
2023/11/01 05:22:34;;;;;;;40.47;23.63;;;11.80;99.90;;;;;;5034845;28;20355;-60
2023/11/01 05:25:00;;;;;;;44.35;22.90;;;11.80;99.90;;;;;;5017093;28;20172;-62
2023/11/01 05:27:26;;;;;;;37.72;22.15;;;11.80;99.90;;;;;;5016581;28;20294;-64
2023/11/01 05:29:52;;;;;;;42.00;22.50;;;11.80;99.90;;;;;;5017218;28;20624;-61
2023/11/01 05:32:18;;;;;;;36.97;21.75;;;11.80;99.90;;;;;;5034083;28;20246;-60
2023/11/01 05:34:45;;;;;;;36.30;20.48;;;11.80;99.90;;;;;;5034595;28;20195;-61
2023/11/01 05:37:11;;;;;;;35.90;21.02;;;11.80;99.90;;;;;;5034282;28;20176;-62
2023/11/01 05:39:37;;;;;;;34.85;20.17;;;11.90;99.90;;;;;;5034484;28;20218;-61
2023/11/01 05:42:03;;;;;;;39.60;20.83;;;11.90;99.90;;;;;;5033276;28;20262;-64
2023/11/01 05:44:30;;;;;;;34.60;20.40;;;11.90;99.90;;;;;;5034415;28;20545;-63
2023/11/01 05:46:57;;;;;;;32.67;19.85;;;11.90;99.90;;;;;;5034256;28;20192;-63
2023/11/01 05:49:24;;;;;;;34.90;20.25;;;11.90;99.90;;;;;;5034373;28;20184;-61
2023/11/01 05:51:50;;;;;;;33.28;20.40;;;11.90;99.90;;;;;;5033769;28;20614;-61
2023/11/01 05:54:16;;;;;;;31.33;19.75;;;11.90;99.90;;;;;;5016238;28;20677;-63
2023/11/01 05:56:42;;;;;;;38.17;20.23;;;11.90;99.90;;;;;;5033871;28;20325;-61
2023/11/01 05:59:09;;;;;;;31.33;19.13;;;11.90;99.90;;;;;;5016721;28;20226;-66
2023/11/01 06:01:36;;;;;;;31.92;18.73;;;11.80;99.90;;;;;;5033997;28;20200;-64
2023/11/01 06:04:02;;;;;;;35.63;20.17;;;11.80;99.90;;;;;;5016747;28;20179;-63
2023/11/01 06:06:28;;;;;;;30.05;18.80;;;11.80;99.90;;;;;;5016340;28;20180;-60
2023/11/01 06:08:54;;;;;;;32.97;18.77;;;11.90;99.90;;;;;;5033698;28;20674;-61
2023/11/01 06:11:21;;;;;;;30.95;18.85;;;11.80;99.90;;;;;;5016412;28;20235;-62
2023/11/01 06:13:47;;;;;;;27.75;18.50;;;11.80;99.90;;;;;;5034060;28;20212;-60
2023/11/01 06:16:13;;;;;;;31.55;18.13;;;11.80;99.90;;;;;;5033586;28;20635;-64
2023/11/01 06:18:38;;;;;;;30.50;18.48;;;11.90;99.90;;;;;;5016205;28;20291;-63
2023/11/01 06:21:05;;;;;;;26.70;18.10;;;11.80;99.90;;;;;;5033426;28;20198;-60
2023/11/01 06:23:31;;;;;;;31.40;16.38;;;11.90;99.90;;;;;;5033316;28;20183;-63
2023/11/01 06:25:58;;;;;;;29.88;17.55;;;11.90;99.90;;;;;;5015132;28;20195;-62
2023/11/01 06:28:26;;;;;;;29.40;16.92;;;11.90;99.90;;;;;;5031984;28;20676;-61
2023/11/01 06:30:52;;;;;;;35.92;16.48;;;11.90;99.90;;;;;;5033249;28;20180;-62
2023/11/01 06:33:18;;;;;;;26.35;15.57;;;11.90;99.90;;;;;;5016115;28;20171;-62
2023/11/01 06:35:44;;;;;;;26.90;17.15;;;11.90;99.90;;;;;;5033175;28;20527;-64
2023/11/01 06:38:10;;;;;;;29.77;17.15;;;11.90;99.90;;;;;;5032050;28;20695;-63
2023/11/01 06:40:35;;;;;;;28.83;17.35;;;12.00;99.90;;;;;;5033377;28;20176;-61
2023/11/01 06:43:01;;;;;;;28.88;15.27;;;12.00;99.90;;;;;;5033189;28;20735;-65
2023/11/01 06:45:27;;;;;;;28.50;15.88;;;12.00;99.90;;;;;;5032930;28;20176;-62
2023/11/01 06:47:53;;;;;;;24.85;15.20;;;12.00;99.90;;;;;;5033295;28;20183;-66
2023/11/01 06:50:19;;;;;;;27.67;16.08;;;12.00;99.90;;;;;;5033581;28;20263;-61
2023/11/01 06:52:45;;;;;;;25.80;15.75;;;12.10;99.90;;;;;;5033015;28;20192;-63
2023/11/01 06:55:12;;;;;;;29.77;15.48;;;12.10;99.90;;;;;;5032881;28;20194;-63
2023/11/01 06:57:39;;;;;;;30.45;16.08;;;12.10;99.90;;;;;;5032705;28;20179;-63
2023/11/01 07:00:08;;;;;;;25.90;15.30;;;12.10;99.90;;;;;;5032762;28;20254;-64
2023/11/01 07:02:35;;;;;;;26.02;15.00;;;12.20;99.90;;;;;;5032982;28;20241;-61
2023/11/01 07:05:04;;;;;;;32.25;15.05;;;12.20;99.90;;;;;;5033302;28;20191;-62
2023/11/01 07:07:31;;;;;;;27.25;16.38;;;12.20;99.90;;;;;;5032167;28;20598;-61
2023/11/01 07:09:58;;;;;;;27.00;14.35;;;12.20;99.90;;;;;;5032171;28;20230;-63
2023/11/01 07:12:24;;;;;;;19.00;13.45;;;12.30;99.90;;;;;;5014739;28;20341;-62
2023/11/01 07:14:50;;;;;;;23.25;13.57;;;12.30;99.90;;;;;;5032080;28;20221;-61
2023/11/01 07:17:16;;;;;;;18.42;12.52;;;12.30;99.90;;;;;;5031912;28;20184;-64
2023/11/01 07:19:42;;;;;;;27.40;14.15;;;12.30;99.90;;;;;;5032436;28;20572;-60
2023/11/01 07:22:08;;;;;;;23.65;12.85;;;12.30;99.90;;;;;;5032230;28;20176;-63
2023/11/01 07:24:34;;;;;;;20.40;11.68;;;12.30;99.90;;;;;;5032423;28;20578;-62
2023/11/01 07:27:00;;;;;;;17.85;12.75;;;12.40;99.90;;;;;;5032034;28;20184;-62
2023/11/01 07:29:26;;;;;;;19.65;11.65;;;12.40;99.90;;;;;;5032032;28;20180;-62
2023/11/01 07:31:51;;;;;;;18.65;11.13;;;12.40;99.90;;;;;;5014148;28;20277;-61
2023/11/01 07:34:17;;;;;;;20.65;11.10;;;12.40;99.90;;;;;;5032172;28;20187;-60
2023/11/01 07:36:43;;;;;;;22.08;10.63;;;12.50;99.90;;;;;;5031750;28;20250;-63
2023/11/01 07:39:09;;;;;;;19.48;11.07;;;12.50;99.90;;;;;;5013836;28;20215;-63
2023/11/01 07:41:37;;;;;;;16.63;10.15;;;12.50;99.90;;;;;;5031777;28;20184;-61
2023/11/01 07:44:03;;;;;;;20.02;11.68;;;12.50;99.90;;;;;;5031772;28;20188;-61
2023/11/01 07:46:29;;;;;;;20.58;11.05;;;12.50;99.90;;;;;;5032233;28;20176;-62
2023/11/01 07:48:55;;;;;;;23.33;12.40;;;12.60;99.90;;;;;;5014142;28;20184;-62
2023/11/01 07:51:21;;;;;;;20.38;12.63;;;12.60;99.90;;;;;;5031713;28;20184;-61
2023/11/01 07:53:47;;;;;;;15.82;10.63;;;12.60;99.90;;;;;;5030361;28;20207;-62
2023/11/01 07:56:13;;;;;;;16.02;10.07;;;12.70;99.90;;;;;;5013765;28;20207;-63
2023/11/01 07:58:39;;;;;;;17.35;9.68;;;12.70;99.90;;;;;;5031678;28;20256;-62
2023/11/01 08:01:06;;;;;;;15.88;9.73;;;12.70;99.90;;;;;;5032072;28;20190;-62
2023/11/01 08:03:34;;;;;;;16.25;9.63;;;12.70;99.90;;;;;;5031703;28;20573;-63
2023/11/01 08:06:01;;;;;;;14.93;9.55;;;12.80;99.90;;;;;;5037651;28;20184;-62
2023/11/01 08:08:27;;;;;;;12.25;7.97;;;12.80;99.90;;;;;;5038672;28;20176;-61
2023/11/01 08:10:53;;;;;;;15.65;8.23;;;12.80;99.90;;;;;;5020422;28;20645;-62
2023/11/01 08:13:19;;;;;;;11.48;7.90;;;12.80;99.90;;;;;;5020877;28;20522;-64
2023/11/01 08:15:45;;;;;;;15.23;8.00;;;12.90;99.90;;;;;;5038160;28;20275;-61
2023/11/01 08:18:12;;;;;;;19.63;7.60;;;12.90;99.90;;;;;;5038321;28;20216;-60
2023/11/01 08:20:39;;;;;;;10.98;6.85;;;12.90;99.90;;;;;;5038103;28;20187;-64
2023/11/01 08:23:05;;;;;;;11.50;7.28;;;12.90;99.90;;;;;;5036859;28;20233;-62
2023/11/01 08:25:31;;;;;;;15.57;7.10;;;13.00;99.90;;;;;;5038103;28;20176;-61
2023/11/01 08:27:57;;;;;;;10.63;6.90;;;13.00;99.90;;;;;;5037849;28;20187;-60
2023/11/01 08:30:23;;;;;;;11.80;6.10;;;13.00;99.90;;;;;;5038312;28;20191;-63
2023/11/01 08:32:50;;;;;;;11.25;6.60;;;13.10;99.90;;;;;;5020173;28;20179;-61
2023/11/01 08:35:16;;;;;;;10.48;6.20;;;13.00;99.90;;;;;;5037873;28;20164;-64
2023/11/01 08:37:42;;;;;;;11.88;7.20;;;13.10;99.90;;;;;;5019967;28;20203;-63
2023/11/01 08:40:08;;;;;;;8.48;5.47;;;13.10;99.90;;;;;;5020518;28;20206;-63
2023/11/01 08:42:35;;;;;;;9.02;5.32;;;13.10;99.90;;;;;;5037974;28;20199;-60
2023/11/01 08:45:01;;;;;;;6.40;4.75;;;13.10;99.90;;;;;;5020377;28;20179;-60
2023/11/01 08:47:38;;;;;;;6.13;4.70;;;13.10;99.90;;;;;;5038145;28;20191;-62
2023/11/01 08:50:05;;;;;;;11.15;6.82;;;13.10;99.90;;;;;;5037711;28;20188;-61
2023/11/01 08:52:32;;;;;;;8.75;6.75;;;13.10;99.90;;;;;;5038267;28;20241;-62
2023/11/01 08:55:01;;;;;;;7.65;4.72;;;13.10;99.90;;;;;;5037896;28;20668;-63
2023/11/01 08:57:28;;;;;;;6.35;4.15;;;13.10;99.90;;;;;;5037805;28;20199;-61
2023/11/01 08:59:57;;;;;;;7.63;4.15;;;13.10;99.90;;;;;;5020262;28;20672;-62
2023/11/01 09:02:26;;;;;;;7.15;5.68;;;13.10;99.90;;;;;;5037681;28;20180;-62
2023/11/01 09:04:56;;;;;;;5.03;3.50;;;13.10;99.90;;;;;;5037711;28;20215;-59
2023/11/01 09:07:22;;;;;;;9.98;5.10;;;13.10;99.90;;;;;;5037799;28;20168;-61
2023/11/01 09:09:49;;;;;;;4.53;3.72;;;13.10;99.90;;;;;;5019650;28;20228;-60
2023/11/01 09:12:16;;;;;;;6.80;4.03;;;13.10;99.90;;;;;;5037469;28;20699;-62
2023/11/01 09:14:43;;;;;;;5.40;3.80;;;13.10;99.90;;;;;;5020113;28;20358;-61
2023/11/01 09:17:09;;;;;;;6.68;3.90;;;13.10;99.90;;;;;;5033991;28;20191;-60
2023/11/01 09:19:35;;;;;;;4.63;3.05;;;13.10;99.90;;;;;;5034433;28;20346;-66
2023/11/01 09:22:01;;;;;;;5.43;3.60;;;13.10;99.90;;;;;;5034844;28;20597;-62
2023/11/01 09:24:27;;;;;;;5.50;3.70;;;13.10;99.90;;;;;;5034727;28;20183;-61
2023/11/01 09:26:53;;;;;;;4.65;3.70;;;13.10;99.90;;;;;;5034224;28;20213;-62
2023/11/01 09:29:19;;;;;;;4.90;3.60;;;13.10;99.90;;;;;;5016640;28;20620;-61
2023/11/01 09:31:45;;;;;;;5.95;3.75;;;13.10;99.90;;;;;;5034779;28;20266;-60
2023/11/01 09:34:11;;;;;;;7.65;4.30;;;13.20;99.90;;;;;;5016707;28;20180;-62
2023/11/01 09:36:39;;;;;;;7.88;5.55;;;13.10;99.90;;;;;;5034335;28;20671;-62
2023/11/01 09:39:09;;;;;;;10.23;7.85;;;13.10;99.90;;;;;;5034253;28;20254;-61
2023/11/01 09:41:48;;;;;;;7.45;4.55;;;13.20;99.90;;;;;;5034376;28;20178;-64
2023/11/01 09:44:17;;;;;;;9.50;4.50;;;13.10;99.90;;;;;;5034355;28;20230;-62
2023/11/01 09:46:45;;;;;;;7.75;4.60;;;13.20;99.90;;;;;;5033814;28;20184;-60
2023/11/01 09:49:12;;;;;;;8.85;5.15;;;13.20;99.90;;;;;;5016563;28;20178;-61
2023/11/01 09:51:38;;;;;;;8.68;5.53;;;13.20;99.90;;;;;;5034031;28;20186;-60
2023/11/01 10:03:58;;;;;;;14.35;8.55;;;13.40;99.90;;;;;;5276554;24;20385;-58
2023/11/01 10:06:28;;;;;;;14.88;9.30;;;13.50;99.90;;;;;;4859002;29;20636;-63
2023/11/01 10:08:55;;;;;;;20.63;8.77;;;13.60;99.90;;;;;;4861644;29;20193;-64
2023/11/01 10:11:22;;;;;;;24.17;10.52;;;13.70;99.90;;;;;;4860562;29;20285;-66
2023/11/01 10:13:49;;;;;;;13.95;9.73;;;13.80;99.90;;;;;;4860627;29;20197;-66
2023/11/01 10:16:15;;;;;;;21.10;9.88;;;13.90;99.90;;;;;;4861476;29;20645;-65
2023/11/01 10:18:43;;;;;;;18.55;9.65;;;13.90;99.90;;;;;;4875936;29;20296;-67
2023/11/01 10:21:09;;;;;;;18.73;10.45;;;14.00;99.90;;;;;;4861169;29;20217;-68
2023/11/01 10:23:35;;;;;;;19.50;9.63;;;14.10;99.90;;;;;;4861531;29;20190;-60
2023/11/01 10:26:02;;;;;;;22.48;10.30;;;14.20;99.90;;;;;;4875367;29;20186;-60
2023/11/01 10:28:30;;;;;;;20.75;10.35;;;14.30;99.90;;;;;;4861014;29;20186;-59
2023/11/01 10:30:56;;;;;;;22.52;9.73;;;14.40;99.90;;;;;;4861447;29;20707;-61
2023/11/01 10:33:23;;;;;;;28.30;10.25;;;14.50;99.90;;;;;;4860161;29;20186;-60
2023/11/01 10:36:02;;;;;;;17.35;8.73;;;14.60;99.90;;;;;;4861375;29;20200;-59
2023/11/01 10:38:30;;;;;;;17.05;9.13;;;14.60;99.90;;;;;;4845213;29;20616;-60
2023/11/01 10:41:03;;;;;;;27.40;9.05;;;14.70;99.90;;;;;;4861410;29;20269;-60
2023/11/01 10:43:31;;;;;;;19.95;8.60;;;14.70;99.90;;;;;;4861035;29;20193;-60
2023/11/01 10:46:01;;;;;;;17.85;8.75;;;14.80;99.90;;;;;;4861499;29;20193;-60
2023/11/01 10:48:30;;;;;;;22.70;8.40;;;14.80;99.90;;;;;;4859522;29;20192;-60
2023/11/01 10:50:56;;;;;;;20.90;8.50;;;14.90;99.90;;;;;;4859738;29;20222;-60
2023/11/01 10:53:23;;;;;;;20.70;8.05;;;14.90;99.90;;;;;;4860790;29;20178;-61
2023/11/01 10:55:51;;;;;;;23.70;7.95;;;15.00;99.90;;;;;;4859827;29;20280;-60
2023/11/01 10:58:25;;;;;;;19.60;7.63;;;15.00;99.90;;;;;;4860253;29;20224;-59
2023/11/01 11:01:06;;;;;;;21.30;7.70;;;15.00;99.90;;;;;;4844344;29;20693;-61
2023/11/01 11:03:53;;;;;;;19.75;6.57;;;15.00;99.90;;;;;;4860340;29;20257;-63
2023/11/01 11:06:25;;;;;;;16.45;7.38;;;15.00;99.90;;;;;;4860421;29;20171;-61
2023/11/01 11:09:17;;;;;;;15.40;6.60;;;15.00;99.90;;;;;;4860762;29;20181;-63
2023/11/01 11:12:03;;;;;;;24.38;7.10;;;15.00;99.90;;;;;;4859972;29;20178;-62
2023/11/01 11:14:46;;;;;;;17.95;6.07;;;15.10;99.90;;;;;;4860699;29;20190;-61
2023/11/01 11:17:14;;;;;;;19.95;5.93;;;15.10;99.90;;;;;;4860768;29;20538;-62
2023/11/01 11:20:05;;;;;;;17.60;6.25;;;15.10;99.90;;;;;;4859834;29;20214;-61
2023/11/01 11:23:02;;;;;;;18.38;5.90;;;15.20;99.90;;;;;;4859113;29;20706;-59
2023/11/01 11:25:37;;;;;;;24.25;5.63;;;15.30;99.90;;;;;;4860703;29;20190;-60
2023/11/01 11:28:37;;;;;;;20.85;5.38;;;15.30;99.90;;;;;;4874430;29;20174;-60
2023/11/01 11:33:36;;;;;;;16.75;4.90;;;15.50;99.90;;;;;;4860427;29;20618;-61
2023/11/01 11:36:23;;;;;;;17.33;4.97;;;15.50;99.90;;;;;;4860146;29;20270;-60
2023/11/01 11:38:55;;;;;;;19.60;5.38;;;15.60;99.90;;;;;;4873521;29;20214;-60
2023/11/01 11:41:21;;;;;;;19.52;6.40;;;15.60;99.90;;;;;;4859513;29;20182;-61
2023/11/01 11:44:06;;;;;;;21.17;6.03;;;15.60;99.90;;;;;;4860200;29;20204;-61
2023/11/01 11:46:44;;;;;;;17.38;5.57;;;15.60;99.90;;;;;;4859105;29;20186;-61
2023/11/01 11:49:22;;;;;;;16.25;4.78;;;15.50;99.90;;;;;;4860324;29;20178;-61
2023/11/01 11:51:50;;;;;;;13.65;5.40;;;15.50;99.90;;;;;;4860543;29;20182;-60
2023/11/01 11:54:17;;;;;;;20.00;5.75;;;15.60;99.90;;;;;;4859167;29;20193;-60
2023/11/01 11:56:43;;;;;;;17.00;4.15;;;15.70;99.90;;;;;;4859754;29;20642;-60
2023/11/01 11:59:10;;;;;;;15.68;6.15;;;15.70;99.90;;;;;;4858239;29;20217;-61
2023/11/01 12:01:38;;;;;;;16.45;4.13;;;15.80;99.90;;;;;;4859861;29;20182;-60
2023/11/01 12:04:07;;;;;;;10.50;4.18;;;15.80;99.90;;;;;;4858118;29;20255;-61
2023/11/01 12:06:41;;;;;;;15.75;4.00;;;15.80;99.90;;;;;;4859334;29;20186;-60
2023/11/01 12:09:21;;;;;;;13.90;4.35;;;15.80;99.90;;;;;;4860081;29;20582;-60
2023/11/01 12:11:54;;;;;;;9.68;4.22;;;15.90;99.90;;;;;;4860205;29;20216;-61
2023/11/01 12:14:25;;;;;;;15.00;4.25;;;15.90;99.90;;;;;;4858548;29;20589;-59
2023/11/01 12:16:53;;;;;;;20.50;4.20;;;15.90;99.90;;;;;;4859520;29;20182;-60
2023/11/01 12:19:21;;;;;;;15.82;4.20;;;15.90;99.90;;;;;;4858038;29;20335;-61
2023/11/01 12:21:49;;;;;;;18.13;4.50;;;16.00;99.90;;;;;;4859400;29;20193;-60
2023/11/01 12:24:17;;;;;;;16.98;4.05;;;16.00;99.90;;;;;;4859283;29;20510;-59
2023/11/01 12:27:05;;;;;;;12.52;4.03;;;16.10;99.90;;;;;;4859323;29;20254;-59
2023/11/01 12:29:36;;;;;;;16.67;4.05;;;16.10;99.90;;;;;;4858101;29;20174;-61
2023/11/01 12:32:04;;;;;;;11.55;3.63;;;16.20;99.90;;;;;;4859512;29;20583;-61
2023/11/01 12:34:36;;;;;;;14.38;4.35;;;16.20;99.90;;;;;;4843069;29;20198;-59
2023/11/01 12:37:09;;;;;;;15.90;3.90;;;16.30;99.90;;;;;;4859369;29;20163;-60
2023/11/01 12:39:38;;;;;;;14.90;4.75;;;16.30;99.90;;;;;;4858435;29;20224;-60
2023/11/01 12:42:28;;;;;;;15.60;4.47;;;16.30;99.90;;;;;;4859161;29;20190;-59
2023/11/01 12:44:55;;;;;;;13.80;4.10;;;16.20;99.90;;;;;;4873618;29;20185;-59